Time;durP1;ratioP1;P1;durP2;ratioP2;P2;SDS_P1;SDS_P2;PMS_P1;PMS_P2;Temp;Humidity;BMP_temperature;BMP_pressure;BME280_temperature;BME280_humidity;BME280_pressure;Samples;Min_cycle;Max_cycle;Signal;HPM_P1;HPM_P2
2021/09/29 00:00:23;;;;;;;0.10;0.10;;;;;;;15.88;61.39;99549.28;5030511;28;20472;-82
2021/09/29 00:02:49;;;;;;;0.08;0.08;;;;;;;15.87;61.77;99552.25;5030947;28;20483;-83
2021/09/29 00:05:14;;;;;;;0.05;0.05;;;;;;;15.88;61.65;99546.59;5039186;28;20029;-92
2021/09/29 00:07:40;;;;;;;0.10;0.10;;;;;;;15.86;61.91;99539.88;5049480;28;20021;-89
2021/09/29 00:10:06;;;;;;;0.10;0.10;;;;;;;15.81;61.88;99543.44;5030560;28;20025;-84
2021/09/29 00:12:32;;;;;;;0.20;0.20;;;;;;;15.80;61.96;99542.63;5031029;28;20472;-81
2021/09/29 00:14:58;;;;;;;0.10;0.10;;;;;;;15.81;61.85;99546.16;5030896;28;20092;-83
2021/09/29 00:17:23;;;;;;;0.10;0.10;;;;;;;15.77;61.96;99540.53;5030716;28;20049;-83
2021/09/29 00:19:49;;;;;;;0.98;0.40;;;;;;;15.76;62.04;99540.81;5043479;28;20059;-82
2021/09/29 00:22:14;;;;;;;0.00;0.00;;;;;;;15.75;61.82;99548.13;5050010;28;20074;-86
2021/09/29 00:24:40;;;;;;;0.08;0.08;;;;;;;15.72;62.20;99539.84;5050557;28;20031;-87
2021/09/29 00:27:05;;;;;;;0.10;0.10;;;;;;;15.72;62.15;99535.25;5048452;28;20059;-84
2021/09/29 00:29:31;;;;;;;0.00;0.00;;;;;;;15.73;62.11;99544.13;5030317;28;20025;-85
2021/09/29 00:31:56;;;;;;;0.28;0.28;;;;;;;15.70;62.16;99540.13;5029907;28;20021;-81
2021/09/29 00:34:29;;;;;;;0.00;0.00;;;;;;;15.71;62.24;99536.34;5030276;28;20033;-79
2021/09/29 00:36:55;;;;;;;0.10;0.10;;;;;;;15.68;62.55;99539.63;5030202;28;20112;-84
2021/09/29 00:39:20;;;;;;;0.10;0.10;;;;;;;15.70;62.60;99548.22;5030290;28;20160;-83
2021/09/29 00:41:47;;;;;;;0.10;0.10;;;;;;;15.71;62.57;99541.75;5030309;28;20358;-80
2021/09/29 00:44:13;;;;;;;0.00;0.00;;;;;;;15.73;62.58;99546.81;5042112;28;20197;-80
2021/09/29 00:46:39;;;;;;;0.00;0.00;;;;;;;15.71;62.67;99541.75;5030203;28;20025;-79
2021/09/29 00:49:05;;;;;;;0.10;0.10;;;;;;;15.72;62.90;99543.34;5036474;28;20032;-85
2021/09/29 00:51:32;;;;;;;0.10;0.10;;;;;;;15.73;62.83;99547.63;5049725;28;20025;-83
2021/09/29 00:53:58;;;;;;;0.43;0.43;;;;;;;15.72;62.58;99543.34;5051118;28;20095;-89
2021/09/29 00:56:24;;;;;;;0.00;0.00;;;;;;;15.68;62.71;99540.44;5051630;28;20518;-89
2021/09/29 00:58:50;;;;;;;0.10;0.10;;;;;;;15.66;62.72;99539.94;5049864;28;20024;-85
2021/09/29 01:01:16;;;;;;;0.20;0.20;;;;;;;15.67;62.80;99546.09;5047452;28;20495;-90
2021/09/29 01:03:44;;;;;;;0.10;0.10;;;;;;;15.62;62.80;99541.59;5047794;28;20021;-88
2021/09/29 01:06:35;;;;;;;0.10;0.10;;;;;;;15.61;62.47;99536.53;5049861;28;20549;-84
2021/09/29 01:09:10;;;;;;;0.10;0.10;;;;;;;15.60;62.70;99534.91;5039632;28;20021;-88
2021/09/29 01:11:46;;;;;;;0.00;0.00;;;;;;;15.57;62.64;99536.31;5050065;28;20028;-89
2021/09/29 01:14:24;;;;;;;0.10;0.10;;;;;;;15.53;62.67;99536.09;5049706;28;20383;-84
2021/09/29 01:16:52;;;;;;;0.00;0.00;;;;;;;15.54;62.87;99528.84;5049897;28;20029;-86
2021/09/29 01:19:39;;;;;;;0.28;0.28;;;;;;;15.50;62.92;99528.63;5043046;28;20092;-86
2021/09/29 01:22:16;;;;;;;0.20;0.20;;;;;;;15.49;63.32;99528.91;5029766;28;20036;-87
2021/09/29 01:24:56;;;;;;;0.20;0.20;;;;;;;15.47;63.20;99525.72;5029963;28;20026;-86
2021/09/29 01:27:23;;;;;;;0.10;0.10;;;;;;;15.51;62.73;99537.50;5049083;28;20387;-90
2021/09/29 01:29:51;;;;;;;0.00;0.00;;;;;;;15.47;62.73;99531.13;5050541;28;20024;-89
2021/09/29 01:32:21;;;;;;;0.10;0.10;;;;;;;15.49;62.62;99527.03;5053595;28;20025;-89
2021/09/29 01:34:49;;;;;;;0.00;0.00;;;;;;;15.48;62.52;99533.50;5049224;28;20017;-90
2021/09/29 01:37:15;;;;;;;0.00;0.00;;;;;;;15.46;62.44;99533.00;5039814;28;20033;-87
2021/09/29 01:39:41;;;;;;;0.08;0.08;;;;;;;15.45;62.38;99531.41;5053518;28;20032;-87
2021/09/29 01:42:06;;;;;;;0.00;0.00;;;;;;;15.45;62.50;99531.41;5050745;28;20167;-88
2021/09/29 01:44:32;;;;;;;0.00;0.00;;;;;;;15.45;62.39;99531.41;5053136;28;20017;-86
2021/09/29 01:46:59;;;;;;;0.32;0.32;;;;;;;15.42;62.27;99523.13;5034559;28;20086;-85
2021/09/29 01:49:36;;;;;;;0.10;0.10;;;;;;;15.44;62.22;99539.78;5034848;28;20017;-89
2021/09/29 01:52:05;;;;;;;0.00;0.00;;;;;;;15.43;62.50;99538.19;5045722;28;20128;-90
2021/09/29 01:54:31;;;;;;;0.00;0.00;;;;;;;15.42;62.40;99540.09;5017189;28;20029;-93
2021/09/29 01:57:18;;;;;;;0.00;0.00;;;;;;;15.39;62.65;99543.34;5038906;28;20387;-94
2021/09/29 01:59:44;;;;;;;0.10;0.10;;;;;;;15.40;62.55;99544.97;5059554;28;20029;-91
2021/09/29 02:02:12;;;;;;;0.10;0.10;;;;;;;15.37;62.47;99542.88;5033788;28;20032;-90
2021/09/29 02:04:46;;;;;;;0.10;0.10;;;;;;;15.37;62.43;99537.47;5017367;28;20476;-92
2021/09/29 02:07:12;;;;;;;0.10;0.10;;;;;;;15.36;62.32;99542.06;5032873;28;20107;-89
2021/09/29 02:09:37;;;;;;;0.10;0.10;;;;;;;15.35;62.31;99534.28;5040301;28;20507;-88
2021/09/29 02:12:03;;;;;;;0.20;0.20;;;;;;;15.34;62.39;99538.88;5053095;28;20033;-83
2021/09/29 02:14:28;;;;;;;0.32;0.32;;;;;;;15.32;62.60;99537.56;5053365;28;20074;-87
2021/09/29 02:16:54;;;;;;;0.10;0.10;;;;;;;15.29;62.39;99541.63;5053593;28;20040;-87
2021/09/29 02:19:21;;;;;;;0.10;0.10;;;;;;;15.30;62.49;99537.06;5052041;28;20063;-83
2021/09/29 02:21:47;;;;;;;5.18;0.35;;;;;;;15.30;62.55;99537.06;5052675;28;20495;-83
2021/09/29 02:24:13;;;;;;;0.20;0.20;;;;;;;15.31;62.54;99542.16;5052155;28;20395;-91
2021/09/29 02:26:39;;;;;;;0.55;0.55;;;;;;;15.31;62.42;99547.53;5052190;28;20128;-85
2021/09/29 02:29:06;;;;;;;0.10;0.10;;;;;;;15.32;62.43;99542.97;5040925;28;20492;-84
2021/09/29 02:31:33;;;;;;;0.03;0.03;;;;;;;15.33;62.07;99542.66;5032878;28;20037;-90
2021/09/29 02:33:58;;;;;;;0.35;0.35;;;;;;;15.32;62.02;99545.66;5032394;28;20498;-91
2021/09/29 02:36:24;;;;;;;0.10;0.10;;;;;;;15.30;62.07;99545.16;5032547;28;20026;-87
2021/09/29 02:38:51;;;;;;;2.95;1.30;;;;;;;15.31;61.91;99544.06;5033458;28;20040;-87
2021/09/29 02:41:18;;;;;;;0.00;0.00;;;;;;;15.27;62.04;99541.16;5035338;28;20016;-93
2021/09/29 02:43:43;;;;;;;0.10;0.10;;;;;;;15.27;62.25;99551.09;5033514;28;20033;-91
2021/09/29 02:46:10;;;;;;;0.55;0.55;;;;;;;15.27;62.22;99560.00;5032468;28;20025;-90
2021/09/29 02:48:37;;;;;;;0.10;0.10;;;;;;;15.26;62.42;99549.50;5034352;28;20485;-96
2021/09/29 02:51:45;;;;;;;0.10;0.10;;;;;;;15.26;62.51;99550.31;5022036;28;20045;-96
2021/09/29 02:54:11;;;;;;;0.20;0.20;;;;;;;15.25;62.72;99545.22;5032861;28;20033;-89
2021/09/29 02:56:37;;;;;;;0.05;0.05;;;;;;;15.24;63.12;99557.09;5031779;28;20562;-89
2021/09/29 02:59:02;;;;;;;0.43;0.43;;;;;;;15.23;63.13;99548.19;5031729;28;20063;-89
2021/09/29 03:01:28;;;;;;;0.55;0.25;;;;;;;15.24;63.79;99560.59;5032435;28;20025;-87
2021/09/29 03:03:53;;;;;;;0.00;0.00;;;;;;;15.24;63.97;99555.19;5048975;28;20037;-90
2021/09/29 03:06:19;;;;;;;0.10;0.10;;;;;;;15.23;64.27;99552.81;5032061;28;20044;-92
2021/09/29 03:08:45;;;;;;;0.03;0.03;;;;;;;15.20;64.57;99548.81;5016316;28;20498;-88
2021/09/29 03:11:10;;;;;;;1.35;0.35;;;;;;;15.20;64.99;99562.28;5031487;28;20061;-84
2021/09/29 03:13:37;;;;;;;0.00;0.00;;;;;;;15.21;65.18;99553.09;5032580;28;20060;-87
2021/09/29 03:16:03;;;;;;;0.10;0.10;;;;;;;15.21;65.07;99553.09;5051751;28;20479;-85
2021/09/29 03:18:28;;;;;;;0.10;0.10;;;;;;;15.23;65.52;99550.09;5057086;28;20033;-93
2021/09/29 03:20:53;;;;;;;0.10;0.10;;;;;;;15.25;65.58;99553.31;5053818;28;20024;-86
2021/09/29 03:23:19;;;;;;;0.00;0.00;;;;;;;15.29;65.45;99548.94;5051205;28;20021;-88
2021/09/29 03:25:45;;;;;;;0.00;0.00;;;;;;;15.29;65.43;99543.53;5034940;28;20103;-86
2021/09/29 03:28:11;;;;;;;0.10;0.10;;;;;;;15.32;65.61;99542.97;5031353;28;20040;-92
2021/09/29 03:30:37;;;;;;;0.00;0.00;;;;;;;15.31;65.64;99544.84;5031824;28;20034;-86
2021/09/29 03:33:06;;;;;;;0.00;0.00;;;;;;;15.33;65.62;99539.97;5031378;28;20021;-84
2021/09/29 03:35:33;;;;;;;0.10;0.10;;;;;;;15.32;65.73;99551.06;5032351;28;20029;-83
2021/09/29 03:37:58;;;;;;;0.05;0.05;;;;;;;15.30;65.58;99551.31;5031117;28;20495;-84
2021/09/29 03:40:24;;;;;;;0.10;0.10;;;;;;;15.31;65.73;99542.16;5037263;28;20021;-88
2021/09/29 03:42:50;;;;;;;0.10;0.10;;;;;;;15.28;65.59;99537.38;5032847;28;20029;-95
2021/09/29 03:45:15;;;;;;;0.00;0.00;;;;;;;15.29;65.51;99538.16;5004869;28;20032;-89
2021/09/29 03:47:43;;;;;;;0.08;0.08;;;;;;;15.27;65.51;99534.94;5030831;28;20029;-89
2021/09/29 03:50:10;;;;;;;0.00;0.00;;;;;;;15.21;65.21;99537.72;5031864;28;20030;-84
2021/09/29 03:52:35;;;;;;;0.00;0.00;;;;;;;15.18;64.82;99538.34;5039494;28;20029;-85
2021/09/29 03:55:01;;;;;;;0.10;0.10;;;;;;;15.13;65.31;99545.69;5048890;28;20441;-85
2021/09/29 03:57:26;;;;;;;0.00;0.00;;;;;;;15.10;65.64;99551.66;5045720;28;20480;-89
2021/09/29 03:59:52;;;;;;;0.00;0.00;;;;;;;15.05;66.06;99547.94;5031565;28;20033;-89
2021/09/29 04:02:17;;;;;;;0.00;0.00;;;;;;;15.01;66.52;99548.81;5030714;28;20017;-83
2021/09/29 04:04:43;;;;;;;0.00;0.00;;;;;;;15.00;66.77;99549.91;5030572;28;20033;-84
2021/09/29 04:07:08;;;;;;;0.00;0.00;;;;;;;14.96;66.85;99551.59;5030576;28;20029;-86
2021/09/29 04:09:33;;;;;;;0.10;0.10;;;;;;;14.95;67.15;99553.50;5031430;28;20022;-91
2021/09/29 04:11:59;;;;;;;0.17;0.17;;;;;;;14.91;67.49;99565.16;5050981;28;20096;-91
2021/09/29 04:14:25;;;;;;;0.20;0.20;;;;;;;14.86;67.42;99561.41;5050662;28;20132;-90
2021/09/29 04:16:50;;;;;;;0.25;0.25;;;;;;;14.83;67.14;99562.03;5037817;28;20115;-85
2021/09/29 04:19:16;;;;;;;0.08;0.08;;;;;;;14.80;67.86;99559.09;5037763;28;20466;-84
2021/09/29 04:21:43;;;;;;;0.00;0.00;;;;;;;14.78;67.93;99564.78;5044713;28;20025;-85
2021/09/29 04:24:11;;;;;;;0.00;0.00;;;;;;;14.78;67.70;99563.97;5021636;28;20041;-78
2021/09/29 04:26:40;;;;;;;0.00;0.00;;;;;;;14.77;68.02;99565.88;5035786;28;20272;-79
2021/09/29 04:29:06;;;;;;;0.00;0.00;;;;;;;14.76;68.46;99566.16;5039318;28;20074;-78
2021/09/29 04:31:31;;;;;;;0.10;0.10;;;;;;;14.76;68.79;99571.53;5050170;28;20028;-79
2021/09/29 04:33:57;;;;;;;0.20;0.20;;;;;;;14.78;68.35;99575.56;5049861;28;20112;-79
2021/09/29 04:36:22;;;;;;;0.10;0.10;;;;;;;14.77;68.50;99565.88;5049082;28;20033;-79
2021/09/29 04:38:48;;;;;;;0.10;0.10;;;;;;;14.83;68.36;99577.34;5049783;28;20123;-79
2021/09/29 04:41:13;;;;;;;0.10;0.10;;;;;;;14.84;68.57;99565.50;5049215;28;20055;-79
2021/09/29 04:43:39;;;;;;;0.00;0.00;;;;;;;14.88;68.41;99571.94;5049655;28;20675;-79
2021/09/29 04:46:04;;;;;;;0.10;0.10;;;;;;;14.89;68.75;99576.19;5049951;28;20024;-79
2021/09/29 04:48:30;;;;;;;0.10;0.10;;;;;;;14.91;68.71;99587.47;5049451;28;20079;-79
2021/09/29 04:50:55;;;;;;;0.00;0.00;;;;;;;14.89;68.96;99586.97;5049628;28;20444;-79
2021/09/29 04:53:21;;;;;;;0.22;0.22;;;;;;;14.87;69.13;99589.16;5049572;28;20493;-79
2021/09/29 04:55:46;;;;;;;0.00;0.00;;;;;;;14.88;69.39;99591.56;5049637;28;20396;-79
2021/09/29 04:58:12;;;;;;;0.85;0.43;;;;;;;14.87;69.63;99595.34;5049399;28;20379;-79
2021/09/29 05:00:38;;;;;;;0.10;0.10;;;;;;;14.85;69.62;99594.81;5049560;28;20454;-80
2021/09/29 05:03:04;;;;;;;1.55;1.17;;;;;;;14.84;70.14;99592.44;5049676;28;20492;-79
2021/09/29 05:05:33;;;;;;;0.10;0.10;;;;;;;14.85;70.29;99591.34;5051237;28;20082;-80
2021/09/29 05:08:00;;;;;;;0.10;0.10;;;;;;;14.84;70.36;99592.44;5053710;28;20028;-79
2021/09/29 05:10:39;;;;;;;0.00;0.00;;;;;;;14.91;70.70;99587.47;5053267;28;20121;-79
2021/09/29 05:13:11;;;;;;;0.10;0.10;;;;;;;14.92;70.47;99593.69;5053755;28;20021;-78
2021/09/29 05:15:37;;;;;;;0.00;0.00;;;;;;;14.95;70.42;99596.59;5053519;28;20085;-78
2021/09/29 05:18:03;;;;;;;0.10;0.10;;;;;;;14.98;70.67;99596.00;5053479;28;20029;-79
2021/09/29 05:20:28;;;;;;;0.10;0.10;;;;;;;15.02;70.56;99607.00;5053152;28;20080;-79
2021/09/29 05:22:54;;;;;;;0.10;0.10;;;;;;;15.06;70.83;99608.00;5053662;28;20047;-78
2021/09/29 05:25:19;;;;;;;0.10;0.10;;;;;;;15.07;70.60;99604.22;5055169;28;20438;-78
2021/09/29 05:27:47;;;;;;;0.08;0.08;;;;;;;15.12;70.48;99606.03;5053709;28;20040;-78
2021/09/29 05:30:13;;;;;;;0.10;0.10;;;;;;;15.13;69.97;99604.94;5053236;28;20094;-78
2021/09/29 05:32:38;;;;;;;0.00;0.00;;;;;;;15.16;69.87;99605.16;5053582;28;20479;-78
2021/09/29 05:35:04;;;;;;;0.00;0.00;;;;;;;15.21;69.56;99615.06;5053558;28;20017;-78
2021/09/29 05:37:29;;;;;;;0.10;0.10;;;;;;;15.23;69.44;99622.84;5053050;28;20032;-78
2021/09/29 05:39:55;;;;;;;0.10;0.10;;;;;;;15.21;69.48;99615.84;5053375;28;20098;-78
2021/09/29 05:42:20;;;;;;;0.15;0.15;;;;;;;15.23;69.39;99620.16;5052765;28;20112;-78
2021/09/29 05:44:46;;;;;;;0.10;0.10;;;;;;;15.26;69.09;99616.88;5053358;28;20021;-78
2021/09/29 05:47:11;;;;;;;0.20;0.20;;;;;;;15.25;69.41;99624.16;5052952;28;20021;-78
2021/09/29 05:49:37;;;;;;;0.00;0.00;;;;;;;15.27;68.92;99619.28;5052995;28;20032;-79
2021/09/29 05:52:02;;;;;;;0.00;0.00;;;;;;;15.32;68.92;99629.19;5053174;28;20119;-78
2021/09/29 05:54:29;;;;;;;0.00;0.00;;;;;;;15.32;69.07;99629.97;5052766;28;20578;-79
2021/09/29 05:56:54;;;;;;;0.17;0.17;;;;;;;15.35;68.90;99634.78;5052917;28;20115;-78
2021/09/29 05:59:20;;;;;;;1.10;0.95;;;;;;;15.34;69.04;99643.97;5052856;28;20104;-78
2021/09/29 06:01:45;;;;;;;0.40;0.40;;;;;;;15.32;68.99;99639.97;5053654;28;20013;-79
2021/09/29 06:04:12;;;;;;;0.00;0.00;;;;;;;15.32;68.71;99639.97;5052742;28;20484;-78
2021/09/29 06:06:37;;;;;;;0.10;0.10;;;;;;;15.30;68.76;99648.31;5052923;28;20428;-78
2021/09/29 06:09:03;;;;;;;0.00;0.00;;;;;;;15.31;68.77;99652.63;5052543;28;20122;-78
2021/09/29 06:11:28;;;;;;;0.05;0.05;;;;;;;15.30;68.57;99653.72;5052764;28;20024;-79
2021/09/29 06:13:54;;;;;;;0.52;0.52;;;;;;;15.29;68.83;99654.81;5052649;28;20021;-79
2021/09/29 06:16:19;;;;;;;0.00;0.00;;;;;;;15.26;69.09;99654.59;5051510;28;20131;-79
2021/09/29 06:18:49;;;;;;;0.00;0.00;;;;;;;15.24;69.02;99652.19;5052256;28;20045;-79
2021/09/29 06:21:17;;;;;;;0.00;0.00;;;;;;;15.24;68.99;99659.50;5052190;28;20556;-80
2021/09/29 06:23:43;;;;;;;0.00;0.00;;;;;;;15.25;69.77;99658.41;5052417;28;20379;-79
2021/09/29 06:26:09;;;;;;;0.10;0.10;;;;;;;15.26;69.63;99658.09;5052159;28;20116;-79
2021/09/29 06:28:37;;;;;;;0.22;0.22;;;;;;;15.26;69.69;99662.66;5052152;28;20013;-79
2021/09/29 06:31:07;;;;;;;0.10;0.10;;;;;;;15.29;69.66;99657.50;5052323;28;20029;-79
2021/09/29 06:33:33;;;;;;;0.32;0.32;;;;;;;15.31;69.46;99655.31;5051958;28;20021;-79
2021/09/29 06:36:00;;;;;;;0.20;0.20;;;;;;;15.33;69.33;99663.09;5052153;28;20452;-79
2021/09/29 06:38:26;;;;;;;0.68;0.68;;;;;;;15.34;69.76;99656.63;5052839;28;20078;-79
2021/09/29 06:40:51;;;;;;;0.03;0.03;;;;;;;15.33;69.35;99663.09;5051982;28;20115;-79
2021/09/29 06:43:17;;;;;;;0.08;0.08;;;;;;;15.31;69.34;99659.94;5051694;28;20116;-79
2021/09/29 06:45:43;;;;;;;0.20;0.20;;;;;;;15.37;69.48;99664.16;5051869;28;20538;-79
2021/09/29 06:48:10;;;;;;;0.10;0.10;;;;;;;15.39;69.10;99663.84;5052070;28;20013;-79
2021/09/29 06:50:36;;;;;;;0.10;0.10;;;;;;;15.37;68.73;99666.84;5051702;28;20029;-80
2021/09/29 06:53:02;;;;;;;0.00;0.00;;;;;;;15.39;69.32;99661.16;5051823;28;20017;-79
2021/09/29 06:55:28;;;;;;;0.20;0.20;;;;;;;15.42;69.28;99665.97;5053206;28;20028;-78
2021/09/29 06:57:53;;;;;;;0.00;0.00;;;;;;;15.44;69.42;99675.34;5051320;28;20032;-78
2021/09/29 07:00:19;;;;;;;0.10;0.10;;;;;;;15.44;68.44;99679.94;5051261;28;20078;-78
2021/09/29 07:02:46;;;;;;;0.20;0.20;;;;;;;15.45;68.63;99671.56;5051591;28;20104;-78
2021/09/29 07:05:13;;;;;;;0.13;0.10;;;;;;;15.45;67.87;99670.75;5051506;28;20021;-79
2021/09/29 07:07:40;;;;;;;0.00;0.00;;;;;;;15.43;66.96;99662.97;5051317;28;20032;-79
2021/09/29 07:10:07;;;;;;;0.32;0.30;;;;;;;15.42;65.53;99674.84;5051483;28;20032;-78
2021/09/29 07:12:35;;;;;;;1.05;0.75;;;;;;;15.44;65.65;99674.53;5051313;28;20020;-79
2021/09/29 07:15:01;;;;;;;0.32;0.32;;;;;;;15.44;64.32;99674.53;5051419;28;20052;-79
2021/09/29 07:17:27;;;;;;;0.77;0.30;;;;;;;15.41;64.30;99681.31;5051169;28;20111;-79
2021/09/29 07:19:57;;;;;;;0.03;0.03;;;;;;;15.44;64.32;99682.63;5051114;28;20098;-79
2021/09/29 07:22:26;;;;;;;0.10;0.10;;;;;;;15.46;65.01;99691.22;5051149;28;20017;-79
2021/09/29 07:24:52;;;;;;;0.70;0.40;;;;;;;15.47;64.12;99695.53;5051220;28;20395;-79
2021/09/29 07:27:18;;;;;;;0.10;0.10;;;;;;;15.48;63.94;99689.06;5050919;28;20175;-79
2021/09/29 07:29:43;;;;;;;0.00;0.00;;;;;;;15.48;62.97;99692.53;5050304;28;20016;-79
2021/09/29 07:32:09;;;;;;;0.10;0.10;;;;;;;15.47;63.13;99698.22;5050960;28;20104;-79
2021/09/29 07:34:34;;;;;;;0.20;0.20;;;;;;;15.50;62.62;99706.53;5050780;28;20115;-79
2021/09/29 07:37:00;;;;;;;0.00;0.00;;;;;;;15.47;62.69;99698.22;5051041;28;20059;-79
2021/09/29 07:39:25;;;;;;;0.10;0.10;;;;;;;15.48;62.63;99703.31;5050722;28;20021;-79
2021/09/29 07:41:51;;;;;;;0.00;0.00;;;;;;;15.49;62.63;99706.81;5050800;28;20021;-78
2021/09/29 07:44:16;;;;;;;0.00;0.00;;;;;;;15.47;62.37;99712.50;5051737;28;20027;-78
2021/09/29 07:46:43;;;;;;;0.13;0.13;;;;;;;15.46;62.28;99718.97;5050734;28;20381;-79
2021/09/29 07:49:11;;;;;;;0.00;0.00;;;;;;;15.46;62.05;99715.50;5050813;28;20017;-79
2021/09/29 07:51:37;;;;;;;0.50;0.50;;;;;;;15.45;61.79;99720.09;5050536;28;20379;-79
2021/09/29 07:54:03;;;;;;;0.03;0.03;;;;;;;15.46;61.89;99715.50;5050911;28;20033;-79
2021/09/29 07:56:28;;;;;;;0.00;0.00;;;;;;;15.43;61.96;99719.56;5050369;28;20560;-79
2021/09/29 07:58:54;;;;;;;0.00;0.00;;;;;;;15.44;61.83;99723.88;5050568;28;20017;-78
2021/09/29 08:01:19;;;;;;;0.10;0.10;;;;;;;15.43;61.72;99719.56;5050221;28;20069;-78
2021/09/29 08:03:45;;;;;;;0.20;0.20;;;;;;;15.45;61.96;99724.66;5050737;28;20021;-79
2021/09/29 08:06:11;;;;;;;0.10;0.10;;;;;;;15.44;62.23;99723.06;5050628;28;20386;-79
2021/09/29 08:08:37;;;;;;;0.20;0.20;;;;;;;15.45;62.25;99717.41;5050324;28;20440;-78
2021/09/29 08:11:02;;;;;;;0.10;0.10;;;;;;;15.44;62.05;99718.47;5050503;28;20098;-79
2021/09/29 08:13:28;;;;;;;0.10;0.10;;;;;;;15.48;61.88;99716.00;5050248;28;20506;-78
2021/09/29 08:15:53;;;;;;;0.00;0.00;;;;;;;15.50;61.70;99717.31;5050475;28;20379;-79
2021/09/29 08:18:19;;;;;;;0.68;0.63;;;;;;;15.48;61.14;99714.09;5050413;28;20395;-79
2021/09/29 08:20:45;;;;;;;0.17;0.17;;;;;;;15.50;61.32;99714.63;5049812;28;20048;-78
2021/09/29 08:26:32;;;;;;;0.00;0.00;;;;;;;15.58;61.76;99712.34;5051308;28;20021;-79
2021/09/29 08:34:03;;;;;;;0.10;0.10;;;;;;;15.63;61.55;99704.19;5051207;28;20021;-78
2021/09/29 08:36:34;;;;;;;0.10;0.10;;;;;;;15.64;61.52;99724.66;5049824;28;20040;-79
2021/09/29 08:44:29;;;;;;;0.00;0.00;;;;;;;15.75;62.64;99720.72;5051313;28;20013;-79
2021/09/29 08:47:44;;;;;;;0.43;0.43;;;;;;;15.73;61.36;99722.09;5049753;28;20060;-79
2021/09/29 08:52:29;;;;;;;0.05;0.05;;;;;;;15.74;61.15;99729.09;5051195;28;20520;-79
2021/09/29 09:16:40;;;;;;;0.00;0.00;;;;;;;15.79;60.18;99732.50;5050776;28;20070;-79
2021/09/29 09:19:09;;;;;;;0.10;0.10;;;;;;;15.79;60.42;99724.41;5049407;28;20472;-79
2021/09/29 09:21:42;;;;;;;0.08;0.08;;;;;;;15.80;60.50;99726.00;5049207;28;20178;-78
2021/09/29 09:24:20;;;;;;;0.10;0.10;;;;;;;15.83;60.39;99724.66;5049375;28;20087;-79
2021/09/29 09:27:03;;;;;;;0.10;0.10;;;;;;;15.85;59.89;99725.16;5049368;28;20021;-79
2021/09/29 09:29:30;;;;;;;0.35;0.35;;;;;;;15.87;59.86;99733.78;5049224;28;20041;-79
2021/09/29 09:32:10;;;;;;;0.10;0.10;;;;;;;15.86;59.97;99734.06;5049464;28;20468;-79
2021/09/29 09:34:37;;;;;;;0.10;0.10;;;;;;;15.86;59.69;99742.97;5049542;28;20060;-79
2021/09/29 09:37:06;;;;;;;0.10;0.10;;;;;;;15.82;60.14;99739.22;5050730;28;20044;-79
2021/09/29 09:39:32;;;;;;;0.10;0.10;;;;;;;15.81;60.17;99733.00;5049223;28;20037;-79
2021/09/29 09:42:00;;;;;;;0.03;0.03;;;;;;;15.78;60.13;99722.00;5049258;28;20110;-80
2021/09/29 09:44:29;;;;;;;0.00;0.00;;;;;;;15.78;60.50;99725.53;5050369;28;20083;-80
2021/09/29 09:47:00;;;;;;;;;;;;;;;15.82;60.02;99725.75;5049799;28;20025;-78
2021/09/29 09:49:26;;;;;;;0.10;0.10;;;;;;;15.80;59.83;99733.31;5049143;28;19905;-78
2021/09/29 09:51:53;;;;;;;0.05;0.05;;;;;;;15.79;60.32;99732.50;5051230;28;20032;-78
2021/09/29 09:54:19;;;;;;;0.80;0.40;;;;;;;15.84;60.68;99732.47;5052471;28;20104;-78
2021/09/29 09:56:53;;;;;;;1.15;0.28;;;;;;;15.88;59.93;99735.38;5052488;28;20155;-79
2021/09/29 09:59:19;;;;;;;0.00;0.00;;;;;;;15.91;60.33;99734.78;5052628;28;20024;-78
2021/09/29 10:01:46;;;;;;;0.10;0.10;;;;;;;15.94;59.99;99726.13;5052005;28;20032;-78
2021/09/29 10:04:13;;;;;;;0.08;0.08;;;;;;;16.02;59.75;99731.94;5052506;28;20029;-79
2021/09/29 10:06:39;;;;;;;0.10;0.10;;;;;;;16.06;59.42;99732.94;5052158;28;20036;-79
2021/09/29 10:09:23;;;;;;;0.05;0.05;;;;;;;16.06;59.94;99736.41;5052508;28;20029;-78
2021/09/29 10:27:58;;;;;;;0.10;0.10;;;;;;;16.41;59.18;99731.50;5053903;28;20036;-79
2021/09/29 10:30:46;;;;;;;0.35;0.30;;;;;;;16.45;58.99;99729.00;5052506;28;20036;-79
2021/09/29 10:33:23;;;;;;;0.00;0.00;;;;;;;16.52;58.95;99723.22;5052223;28;20086;-80
2021/09/29 10:40:57;;;;;;;0.05;0.05;;;;;;;16.72;57.84;99719.31;5053125;28;20067;-80
2021/09/29 10:43:34;;;;;;;0.08;0.08;;;;;;;16.80;57.64;99718.63;5052066;28;20029;-79
2021/09/29 11:08:33;;;;;;;0.03;0.03;;;;;;;17.20;55.38;99704.56;5052807;28;20380;-80
2021/09/29 11:30:41;;;;;;;0.00;0.00;;;;;;;17.60;55.41;99666.88;5052121;28;20037;-80
2021/09/29 11:33:32;;;;;;;0.10;0.10;;;;;;;17.66;55.07;99673.75;5050848;28;20020;-80
2021/09/29 12:09:15;;;;;;;0.10;0.10;;;;;;;17.82;54.03;99681.50;5051546;28;20383;-79
2021/09/29 12:11:52;;;;;;;0.08;0.08;;;;;;;17.78;54.71;99675.91;5051430;28;20021;-79
2021/09/29 12:14:20;;;;;;;0.30;0.30;;;;;;;17.74;54.23;99673.03;5049566;28;20463;-80
2021/09/29 12:16:49;;;;;;;0.13;0.13;;;;;;;17.78;54.57;99678.63;5049820;28;20016;-80
2021/09/29 12:19:23;;;;;;;0.00;0.00;;;;;;;17.76;54.58;99670.03;5049876;28;20045;-80
2021/09/29 12:21:51;;;;;;;0.43;0.20;;;;;;;17.84;54.55;99671.19;5049848;28;20106;-79
2021/09/29 12:24:31;;;;;;;0.13;0.13;;;;;;;17.85;54.83;99676.28;5050065;28;20407;-80
2021/09/29 12:26:59;;;;;;;0.22;0.22;;;;;;;17.80;54.12;99675.59;5049682;28;20066;-80
2021/09/29 12:29:50;;;;;;;0.10;0.10;;;;;;;17.82;54.48;99682.34;5050010;28;20025;-78
2021/09/29 12:35:04;;;;;;;0.38;0.38;;;;;;;17.88;54.76;99669.47;5051046;28;20112;-79
2021/09/29 12:37:29;;;;;;;0.10;0.10;;;;;;;17.92;54.66;99676.66;5049901;28;20112;-79
2021/09/29 12:39:57;;;;;;;0.75;0.65;;;;;;;17.94;54.87;99665.50;5049784;28;20048;-78
2021/09/29 12:42:35;;;;;;;1.02;0.98;;;;;;;17.96;54.74;99663.34;5049849;28;20025;-78
2021/09/29 12:45:01;;;;;;;0.10;0.10;;;;;;;17.96;54.84;99665.25;5049855;28;20025;-79
2021/09/29 12:49:58;;;;;;;0.30;0.30;;;;;;;17.91;54.74;99664.22;5050929;28;20037;-80
2021/09/29 12:52:31;;;;;;;0.00;0.00;;;;;;;17.95;54.58;99669.84;5049856;28;20032;-80
2021/09/29 12:54:58;;;;;;;0.20;0.20;;;;;;;17.97;55.00;99656.00;5049676;28;20047;-79
2021/09/29 12:57:27;;;;;;;0.20;0.20;;;;;;;17.96;54.01;99652.50;5049760;28;20020;-79
2021/09/29 12:59:53;;;;;;;0.10;0.10;;;;;;;17.96;53.99;99657.13;5049494;28;20407;-78
2021/09/29 13:02:18;;;;;;;0.10;0.10;;;;;;;17.92;53.76;99646.88;5049291;28;20028;-78
2021/09/29 13:04:44;;;;;;;0.10;0.10;;;;;;;17.93;54.39;99655.78;5049629;28;20445;-78
2021/09/29 13:07:09;;;;;;;0.10;0.10;;;;;;;17.96;54.37;99654.44;5050992;28;20021;-80
2021/09/29 13:09:34;;;;;;;0.13;0.13;;;;;;;17.97;54.47;99648.69;5049603;28;20116;-79
2021/09/29 13:12:00;;;;;;;0.00;0.00;;;;;;;18.02;54.42;99653.97;5049464;28;20027;-78
2021/09/29 13:14:25;;;;;;;0.10;0.10;;;;;;;18.04;54.18;99640.13;5049703;28;20024;-78
2021/09/29 13:16:51;;;;;;;0.80;0.40;;;;;;;18.10;53.67;99644.28;5050876;28;20396;-79
2021/09/29 13:19:22;;;;;;;0.00;0.00;;;;;;;18.11;53.55;99640.47;5049361;28;20403;-79
2021/09/29 13:37:40;;;;;;;0.10;0.10;;;;;;;18.22;52.50;99632.88;5054504;28;20036;-80
2021/09/29 13:40:06;;;;;;;0.10;0.10;;;;;;;18.22;52.16;99643.72;5053220;28;20029;-80
2021/09/29 13:42:32;;;;;;;0.00;0.00;;;;;;;18.16;51.74;99632.25;5053038;28;20077;-80
2021/09/29 13:44:58;;;;;;;0.10;0.10;;;;;;;18.16;52.35;99636.84;5053010;28;20479;-80
2021/09/29 13:47:24;;;;;;;0.10;0.10;;;;;;;18.17;52.15;99635.72;5053024;28;20021;-80
2021/09/29 13:49:50;;;;;;;0.30;0.30;;;;;;;18.18;52.18;99642.75;5052722;28;20082;-80
2021/09/29 13:52:19;;;;;;;0.57;0.57;;;;;;;18.14;52.28;99634.44;5053125;28;20510;-80
2021/09/29 13:54:45;;;;;;;0.22;0.22;;;;;;;18.16;52.69;99636.84;5052934;28;20025;-80
2021/09/29 13:59:59;;;;;;;0.10;0.10;;;;;;;18.11;52.04;99645.88;5053870;28;20028;-78
2021/09/29 14:02:42;;;;;;;0.20;0.20;;;;;;;18.09;52.25;99640.00;5032696;28;20028;-80
2021/09/29 14:30:32;;;;;;;0.50;0.50;;;;;;;18.00;51.74;99656.19;5055139;28;20533;-88
2021/09/29 14:32:49;;;;;;;0.03;0.03;;;;;;;18.01;51.47;99648.88;5039059;28;20095;-88
2021/09/29 14:35:16;;;;;;;0.10;0.10;;;;;;;18.04;51.57;99659.88;5032931;28;20123;-79
2021/09/29 14:37:42;;;;;;;0.43;0.43;;;;;;;18.03;51.80;99652.88;5032016;28;20025;-78
2021/09/29 14:40:08;;;;;;;0.10;0.10;;;;;;;18.07;51.63;99663.88;5032325;28;20094;-76